sensor_id;sensor_type;location;lat;lon;timestamp;temperature;humidity
53802;DHT22;39709;53.334;6.534;2023-03-23T00:01:54;11.10;99.90
53802;DHT22;39709;53.334;6.534;2023-03-23T00:04:20;10.50;99.90
53802;DHT22;39709;53.334;6.534;2023-03-23T00:06:46;10.60;99.90
53802;DHT22;39709;53.334;6.534;2023-03-23T00:09:13;10.80;99.90
53802;DHT22;39709;53.334;6.534;2023-03-23T00:11:41;10.30;99.90
53802;DHT22;39709;53.334;6.534;2023-03-23T00:14:07;10.00;99.90
53802;DHT22;39709;53.334;6.534;2023-03-23T00:16:38;10.60;99.90
53802;DHT22;39709;53.334;6.534;2023-03-23T00:19:08;10.20;99.90
53802;DHT22;39709;53.334;6.534;2023-03-23T00:21:36;10.50;99.90
53802;DHT22;39709;53.334;6.534;2023-03-23T00:24:08;10.00;99.90
53802;DHT22;39709;53.334;6.534;2023-03-23T00:26:37;10.30;99.90
53802;DHT22;39709;53.334;6.534;2023-03-23T00:29:13;10.20;99.90
53802;DHT22;39709;53.334;6.534;2023-03-23T00:31:40;10.20;99.90
53802;DHT22;39709;53.334;6.534;2023-03-23T00:34:06;10.40;99.90
53802;DHT22;39709;53.334;6.534;2023-03-23T00:36:33;10.30;99.90
53802;DHT22;39709;53.334;6.534;2023-03-23T00:39:02;11.00;99.90
53802;DHT22;39709;53.334;6.534;2023-03-23T00:41:28;10.50;99.90
53802;DHT22;39709;53.334;6.534;2023-03-23T00:43:55;10.40;99.90
53802;DHT22;39709;53.334;6.534;2023-03-23T00:46:22;10.30;99.90
53802;DHT22;39709;53.334;6.534;2023-03-23T00:48:48;11.10;99.90
53802;DHT22;39709;53.334;6.534;2023-03-23T00:51:14;11.00;99.90
53802;DHT22;39709;53.334;6.534;2023-03-23T00:53:40;11.00;99.90
53802;DHT22;39709;53.334;6.534;2023-03-23T00:56:06;10.90;99.90
53802;DHT22;39709;53.334;6.534;2023-03-23T00:58:32;11.00;99.90
53802;DHT22;39709;53.334;6.534;2023-03-23T01:00:58;10.90;99.90
53802;DHT22;39709;53.334;6.534;2023-03-23T01:03:24;10.10;99.90
53802;DHT22;39709;53.334;6.534;2023-03-23T01:05:52;10.50;99.90
53802;DHT22;39709;53.334;6.534;2023-03-23T01:08:19;10.20;99.90
53802;DHT22;39709;53.334;6.534;2023-03-23T01:10:45;10.80;99.90
53802;DHT22;39709;53.334;6.534;2023-03-23T01:13:11;10.40;99.90
53802;DHT22;39709;53.334;6.534;2023-03-23T01:15:38;11.00;99.90
53802;DHT22;39709;53.334;6.534;2023-03-23T01:18:04;10.70;99.90
53802;DHT22;39709;53.334;6.534;2023-03-23T01:20:30;10.30;99.90
53802;DHT22;39709;53.334;6.534;2023-03-23T01:22:59;10.80;99.90
53802;DHT22;39709;53.334;6.534;2023-03-23T01:25:31;11.10;99.90
53802;DHT22;39709;53.334;6.534;2023-03-23T01:27:58;11.30;99.90
53802;DHT22;39709;53.334;6.534;2023-03-23T01:30:24;10.70;99.90
53802;DHT22;39709;53.334;6.534;2023-03-23T01:32:50;10.70;99.90
53802;DHT22;39709;53.334;6.534;2023-03-23T01:35:16;10.80;99.90
53802;DHT22;39709;53.334;6.534;2023-03-23T01:37:42;11.00;99.90
53802;DHT22;39709;53.334;6.534;2023-03-23T01:40:09;11.00;99.90
53802;DHT22;39709;53.334;6.534;2023-03-23T01:42:37;10.60;99.90
53802;DHT22;39709;53.334;6.534;2023-03-23T01:45:31;10.90;99.90
53802;DHT22;39709;53.334;6.534;2023-03-23T01:50:28;10.70;99.90
53802;DHT22;39709;53.334;6.534;2023-03-23T01:52:57;11.00;99.90
53802;DHT22;39709;53.334;6.534;2023-03-23T01:55:24;11.10;99.90
53802;DHT22;39709;53.334;6.534;2023-03-23T01:57:52;10.80;99.90
53802;DHT22;39709;53.334;6.534;2023-03-23T02:00:19;11.10;99.90
53802;DHT22;39709;53.334;6.534;2023-03-23T02:02:48;11.00;99.90
53802;DHT22;39709;53.334;6.534;2023-03-23T02:08:18;10.90;99.90
53802;DHT22;39709;53.334;6.534;2023-03-23T02:10:44;11.10;99.90
53802;DHT22;39709;53.334;6.534;2023-03-23T02:13:11;10.70;99.90
53802;DHT22;39709;53.334;6.534;2023-03-23T02:18:50;10.90;99.90
53802;DHT22;39709;53.334;6.534;2023-03-23T02:25:02;11.50;99.90
53802;DHT22;39709;53.334;6.534;2023-03-23T02:27:03;11.40;99.90
53802;DHT22;39709;53.334;6.534;2023-03-23T02:35:14;11.30;99.90
53802;DHT22;39709;53.334;6.534;2023-03-23T02:37:53;11.10;99.90
53802;DHT22;39709;53.334;6.534;2023-03-23T02:40:33;11.10;99.90
53802;DHT22;39709;53.334;6.534;2023-03-23T02:43:03;11.30;99.90
53802;DHT22;39709;53.334;6.534;2023-03-23T02:45:33;11.50;99.90
53802;DHT22;39709;53.334;6.534;2023-03-23T02:48:01;11.50;99.90
53802;DHT22;39709;53.334;6.534;2023-03-23T02:50:29;11.50;99.90
53802;DHT22;39709;53.334;6.534;2023-03-23T02:52:55;11.60;99.90
53802;DHT22;39709;53.334;6.534;2023-03-23T02:55:22;11.30;99.90
53802;DHT22;39709;53.334;6.534;2023-03-23T02:57:52;11.80;99.90
53802;DHT22;39709;53.334;6.534;2023-03-23T03:00:18;11.50;99.90
53802;DHT22;39709;53.334;6.534;2023-03-23T03:02:52;11.50;99.90
53802;DHT22;39709;53.334;6.534;2023-03-23T03:16:33;11.70;99.90
53802;DHT22;39709;53.334;6.534;2023-03-23T03:21:36;11.40;99.90
53802;DHT22;39709;53.334;6.534;2023-03-23T03:24:03;11.40;99.90
53802;DHT22;39709;53.334;6.534;2023-03-23T03:26:31;11.70;99.90
53802;DHT22;39709;53.334;6.534;2023-03-23T03:28:58;11.30;99.90
53802;DHT22;39709;53.334;6.534;2023-03-23T03:31:29;11.70;99.90
53802;DHT22;39709;53.334;6.534;2023-03-23T03:33:56;11.70;99.90
53802;DHT22;39709;53.334;6.534;2023-03-23T03:36:27;11.50;99.90
53802;DHT22;39709;53.334;6.534;2023-03-23T03:38:53;11.80;99.90
53802;DHT22;39709;53.334;6.534;2023-03-23T03:41:22;11.50;99.90
53802;DHT22;39709;53.334;6.534;2023-03-23T03:43:48;11.40;99.90
53802;DHT22;39709;53.334;6.534;2023-03-23T03:46:14;11.20;99.90
53802;DHT22;39709;53.334;6.534;2023-03-23T03:48:39;11.20;99.90
53802;DHT22;39709;53.334;6.534;2023-03-23T03:51:05;11.20;99.90
53802;DHT22;39709;53.334;6.534;2023-03-23T03:53:31;11.70;99.90
53802;DHT22;39709;53.334;6.534;2023-03-23T03:55:57;11.80;99.90
53802;DHT22;39709;53.334;6.534;2023-03-23T03:58:26;11.50;99.90
53802;DHT22;39709;53.334;6.534;2023-03-23T04:01:00;11.70;99.90
53802;DHT22;39709;53.334;6.534;2023-03-23T04:03:26;11.40;99.90
53802;DHT22;39709;53.334;6.534;2023-03-23T04:05:54;11.70;99.90
53802;DHT22;39709;53.334;6.534;2023-03-23T04:08:23;11.70;99.90
53802;DHT22;39709;53.334;6.534;2023-03-23T04:10:49;11.70;99.90
53802;DHT22;39709;53.334;6.534;2023-03-23T04:13:16;11.50;99.90
53802;DHT22;39709;53.334;6.534;2023-03-23T04:15:43;11.30;99.90
53802;DHT22;39709;53.334;6.534;2023-03-23T04:18:08;11.50;99.90
53802;DHT22;39709;53.334;6.534;2023-03-23T04:20:34;11.00;99.90
53802;DHT22;39709;53.334;6.534;2023-03-23T04:23:00;11.50;99.90
53802;DHT22;39709;53.334;6.534;2023-03-23T04:25:27;11.40;99.90
53802;DHT22;39709;53.334;6.534;2023-03-23T04:27:53;11.40;99.90
53802;DHT22;39709;53.334;6.534;2023-03-23T04:30:24;10.70;99.90
53802;DHT22;39709;53.334;6.534;2023-03-23T04:32:51;11.20;99.90
53802;DHT22;39709;53.334;6.534;2023-03-23T04:35:19;11.30;99.90
53802;DHT22;39709;53.334;6.534;2023-03-23T04:37:46;10.80;99.90
53802;DHT22;39709;53.334;6.534;2023-03-23T04:40:12;10.90;99.90
53802;DHT22;39709;53.334;6.534;2023-03-23T04:42:41;11.30;99.90
53802;DHT22;39709;53.334;6.534;2023-03-23T04:45:13;11.30;99.90
53802;DHT22;39709;53.334;6.534;2023-03-23T04:47:40;11.10;99.90
53802;DHT22;39709;53.334;6.534;2023-03-23T04:50:11;10.90;99.90
53802;DHT22;39709;53.334;6.534;2023-03-23T04:52:39;10.80;99.90
53802;DHT22;39709;53.334;6.534;2023-03-23T04:55:07;10.80;99.90
53802;DHT22;39709;53.334;6.534;2023-03-23T04:57:33;10.70;99.90
53802;DHT22;39709;53.334;6.534;2023-03-23T05:00:01;10.50;99.90
53802;DHT22;39709;53.334;6.534;2023-03-23T05:02:29;11.00;99.90
53802;DHT22;39709;53.334;6.534;2023-03-23T05:04:56;10.70;99.90
53802;DHT22;39709;53.334;6.534;2023-03-23T05:07:23;10.50;99.90
53802;DHT22;39709;53.334;6.534;2023-03-23T05:09:49;11.20;99.90
53802;DHT22;39709;53.334;6.534;2023-03-23T05:12:15;10.80;99.90
53802;DHT22;39709;53.334;6.534;2023-03-23T05:14:42;11.20;99.90
53802;DHT22;39709;53.334;6.534;2023-03-23T05:17:08;10.90;99.90
53802;DHT22;39709;53.334;6.534;2023-03-23T05:19:35;10.90;99.90
53802;DHT22;39709;53.334;6.534;2023-03-23T05:22:01;10.90;99.90
53802;DHT22;39709;53.334;6.534;2023-03-23T05:24:29;11.10;99.90
53802;DHT22;39709;53.334;6.534;2023-03-23T05:26:57;10.80;99.90
53802;DHT22;39709;53.334;6.534;2023-03-23T05:29:22;11.10;99.90
53802;DHT22;39709;53.334;6.534;2023-03-23T05:31:49;10.90;99.90
53802;DHT22;39709;53.334;6.534;2023-03-23T05:34:15;11.00;99.90
53802;DHT22;39709;53.334;6.534;2023-03-23T05:36:42;11.20;99.90
53802;DHT22;39709;53.334;6.534;2023-03-23T05:39:10;10.80;99.90
53802;DHT22;39709;53.334;6.534;2023-03-23T05:41:36;10.90;99.90
53802;DHT22;39709;53.334;6.534;2023-03-23T05:44:03;10.90;99.90
53802;DHT22;39709;53.334;6.534;2023-03-23T05:46:29;11.20;99.90
53802;DHT22;39709;53.334;6.534;2023-03-23T05:48:54;11.30;99.90
53802;DHT22;39709;53.334;6.534;2023-03-23T05:51:20;11.40;99.90
53802;DHT22;39709;53.334;6.534;2023-03-23T05:53:46;11.10;99.90
53802;DHT22;39709;53.334;6.534;2023-03-23T05:56:12;10.90;99.90
53802;DHT22;39709;53.334;6.534;2023-03-23T05:58:38;11.00;99.90
53802;DHT22;39709;53.334;6.534;2023-03-23T06:01:07;11.30;99.90
53802;DHT22;39709;53.334;6.534;2023-03-23T06:03:33;11.30;99.90
53802;DHT22;39709;53.334;6.534;2023-03-23T06:06:04;11.20;99.90
53802;DHT22;39709;53.334;6.534;2023-03-23T06:08:30;11.10;99.90
53802;DHT22;39709;53.334;6.534;2023-03-23T06:10:56;11.00;99.90
53802;DHT22;39709;53.334;6.534;2023-03-23T06:13:22;11.10;99.90
53802;DHT22;39709;53.334;6.534;2023-03-23T06:15:49;11.40;99.90
53802;DHT22;39709;53.334;6.534;2023-03-23T06:18:15;11.50;99.90
53802;DHT22;39709;53.334;6.534;2023-03-23T06:20:41;11.00;99.90
53802;DHT22;39709;53.334;6.534;2023-03-23T06:23:09;11.10;99.90
53802;DHT22;39709;53.334;6.534;2023-03-23T06:25:35;11.10;99.90
53802;DHT22;39709;53.334;6.534;2023-03-23T06:28:00;11.30;99.90
53802;DHT22;39709;53.334;6.534;2023-03-23T06:30:26;11.10;99.90
53802;DHT22;39709;53.334;6.534;2023-03-23T06:32:53;11.30;99.90
53802;DHT22;39709;53.334;6.534;2023-03-23T06:35:19;11.30;99.90
53802;DHT22;39709;53.334;6.534;2023-03-23T06:37:45;11.10;99.90
53802;DHT22;39709;53.334;6.534;2023-03-23T06:40:11;11.10;99.90
53802;DHT22;39709;53.334;6.534;2023-03-23T06:42:37;10.80;99.90
53802;DHT22;39709;53.334;6.534;2023-03-23T06:45:05;11.00;99.90
53802;DHT22;39709;53.334;6.534;2023-03-23T06:47:33;10.70;99.90
53802;DHT22;39709;53.334;6.534;2023-03-23T06:49:59;10.60;99.90
53802;DHT22;39709;53.334;6.534;2023-03-23T06:52:25;11.00;99.90
53802;DHT22;39709;53.334;6.534;2023-03-23T06:54:52;10.70;99.90
53802;DHT22;39709;53.334;6.534;2023-03-23T06:57:18;10.90;99.90
53802;DHT22;39709;53.334;6.534;2023-03-23T06:59:44;10.60;99.90
53802;DHT22;39709;53.334;6.534;2023-03-23T07:02:14;10.50;99.90
53802;DHT22;39709;53.334;6.534;2023-03-23T07:04:40;10.60;99.90
53802;DHT22;39709;53.334;6.534;2023-03-23T07:07:09;10.80;99.90
53802;DHT22;39709;53.334;6.534;2023-03-23T07:09:35;10.80;99.90
53802;DHT22;39709;53.334;6.534;2023-03-23T07:12:01;10.70;99.90
53802;DHT22;39709;53.334;6.534;2023-03-23T07:14:27;10.50;99.90
53802;DHT22;39709;53.334;6.534;2023-03-23T07:16:53;10.70;99.90
53802;DHT22;39709;53.334;6.534;2023-03-23T07:19:19;10.60;99.90
53802;DHT22;39709;53.334;6.534;2023-03-23T07:21:44;10.50;99.90
53802;DHT22;39709;53.334;6.534;2023-03-23T07:24:11;10.90;99.90
53802;DHT22;39709;53.334;6.534;2023-03-23T07:26:40;10.90;99.90
53802;DHT22;39709;53.334;6.534;2023-03-23T07:29:07;10.80;99.90
53802;DHT22;39709;53.334;6.534;2023-03-23T07:31:33;11.00;99.90
53802;DHT22;39709;53.334;6.534;2023-03-23T07:33:59;11.00;99.90
53802;DHT22;39709;53.334;6.534;2023-03-23T07:36:26;11.00;99.90
53802;DHT22;39709;53.334;6.534;2023-03-23T07:38:52;11.10;99.90
53802;DHT22;39709;53.334;6.534;2023-03-23T07:41:18;11.20;99.90
53802;DHT22;39709;53.334;6.534;2023-03-23T07:43:45;11.10;99.90
53802;DHT22;39709;53.334;6.534;2023-03-23T07:46:12;11.30;99.90
53802;DHT22;39709;53.334;6.534;2023-03-23T07:48:38;11.30;99.90
53802;DHT22;39709;53.334;6.534;2023-03-23T07:51:05;11.60;99.90
53802;DHT22;39709;53.334;6.534;2023-03-23T07:53:31;11.30;99.90
53802;DHT22;39709;53.334;6.534;2023-03-23T07:55:57;11.50;99.90
53802;DHT22;39709;53.334;6.534;2023-03-23T07:58:23;11.40;99.90
53802;DHT22;39709;53.334;6.534;2023-03-23T08:00:49;11.60;99.90
53802;DHT22;39709;53.334;6.534;2023-03-23T08:03:15;11.90;99.90
53802;DHT22;39709;53.334;6.534;2023-03-23T08:05:42;11.60;99.90
53802;DHT22;39709;53.334;6.534;2023-03-23T08:08:09;11.60;99.90
53802;DHT22;39709;53.334;6.534;2023-03-23T08:10:35;11.80;99.90
53802;DHT22;39709;53.334;6.534;2023-03-23T08:13:02;11.70;99.90
53802;DHT22;39709;53.334;6.534;2023-03-23T08:15:29;12.00;99.90
53802;DHT22;39709;53.334;6.534;2023-03-23T08:17:55;11.90;99.90
53802;DHT22;39709;53.334;6.534;2023-03-23T08:20:21;12.00;99.90
53802;DHT22;39709;53.334;6.534;2023-03-23T08:22:55;12.00;99.90
53802;DHT22;39709;53.334;6.534;2023-03-23T08:25:23;11.60;99.90
53802;DHT22;39709;53.334;6.534;2023-03-23T08:27:50;11.70;99.90
53802;DHT22;39709;53.334;6.534;2023-03-23T08:30:18;12.10;99.90
53802;DHT22;39709;53.334;6.534;2023-03-23T08:32:45;11.90;99.90
53802;DHT22;39709;53.334;6.534;2023-03-23T08:35:12;11.80;99.90
53802;DHT22;39709;53.334;6.534;2023-03-23T08:37:40;11.90;99.90
53802;DHT22;39709;53.334;6.534;2023-03-23T08:40:10;11.80;99.90
53802;DHT22;39709;53.334;6.534;2023-03-23T08:42:37;12.00;99.90
53802;DHT22;39709;53.334;6.534;2023-03-23T08:45:05;12.20;99.90
53802;DHT22;39709;53.334;6.534;2023-03-23T08:47:36;12.10;99.20
53802;DHT22;39709;53.334;6.534;2023-03-23T08:50:04;12.20;98.40
53802;DHT22;39709;53.334;6.534;2023-03-23T08:52:31;12.20;88.90
53802;DHT22;39709;53.334;6.534;2023-03-23T08:54:57;12.30;76.20
53802;DHT22;39709;53.334;6.534;2023-03-23T08:57:25;12.30;64.70
53802;DHT22;39709;53.334;6.534;2023-03-23T08:59:51;12.30;80.40
53802;DHT22;39709;53.334;6.534;2023-03-23T09:02:20;12.50;52.90
53802;DHT22;39709;53.334;6.534;2023-03-23T09:04:46;12.60;30.90
53802;DHT22;39709;53.334;6.534;2023-03-23T09:07:12;12.50;36.20
53802;DHT22;39709;53.334;6.534;2023-03-23T09:09:40;12.50;28.60
53802;DHT22;39709;53.334;6.534;2023-03-23T09:12:07;12.60;13.00
53802;DHT22;39709;53.334;6.534;2023-03-23T09:14:37;12.60;13.40
53802;DHT22;39709;53.334;6.534;2023-03-23T09:17:04;12.60;22.70
53802;DHT22;39709;53.334;6.534;2023-03-23T09:19:32;12.50;35.20
53802;DHT22;39709;53.334;6.534;2023-03-23T09:21:59;12.70;34.10
53802;DHT22;39709;53.334;6.534;2023-03-23T09:24:24;12.50;28.10
53802;DHT22;39709;53.334;6.534;2023-03-23T09:26:50;12.60;15.90
53802;DHT22;39709;53.334;6.534;2023-03-23T09:29:16;12.50;1.00
53802;DHT22;39709;53.334;6.534;2023-03-23T09:31:44;12.70;18.10
53802;DHT22;39709;53.334;6.534;2023-03-23T09:34:12;13.00;1.00
53802;DHT22;39709;53.334;6.534;2023-03-23T09:36:38;13.00;1.00
53802;DHT22;39709;53.334;6.534;2023-03-23T09:39:05;13.00;1.00
53802;DHT22;39709;53.334;6.534;2023-03-23T09:50:19;13.00;1.00
53802;DHT22;39709;53.334;6.534;2023-03-23T09:52:56;13.20;1.00
53802;DHT22;39709;53.334;6.534;2023-03-23T09:55:22;12.90;1.00
53802;DHT22;39709;53.334;6.534;2023-03-23T09:58:18;13.00;1.00
53802;DHT22;39709;53.334;6.534;2023-03-23T10:00:56;12.90;1.00
53802;DHT22;39709;53.334;6.534;2023-03-23T10:03:31;13.00;1.00
53802;DHT22;39709;53.334;6.534;2023-03-23T10:05:58;12.80;1.00
53802;DHT22;39709;53.334;6.534;2023-03-23T10:08:30;13.00;1.00
53802;DHT22;39709;53.334;6.534;2023-03-23T10:17:00;13.20;1.00
53802;DHT22;39709;53.334;6.534;2023-03-23T10:22:15;13.50;1.00
53802;DHT22;39709;53.334;6.534;2023-03-23T10:27:58;13.10;1.00
53802;DHT22;39709;53.334;6.534;2023-03-23T10:30:32;13.10;1.00
53802;DHT22;39709;53.334;6.534;2023-03-23T10:36:05;13.20;1.00
53802;DHT22;39709;53.334;6.534;2023-03-23T10:38:45;13.10;1.00
53802;DHT22;39709;53.334;6.534;2023-03-23T10:41:15;13.20;1.00
53802;DHT22;39709;53.334;6.534;2023-03-23T10:43:42;13.30;1.00
53802;DHT22;39709;53.334;6.534;2023-03-23T10:49:18;13.10;1.00
53802;DHT22;39709;53.334;6.534;2023-03-23T10:51:52;13.50;1.00
53802;DHT22;39709;53.334;6.534;2023-03-23T10:54:35;13.20;1.00
53802;DHT22;39709;53.334;6.534;2023-03-23T10:57:25;13.00;1.00
53802;DHT22;39709;53.334;6.534;2023-03-23T11:00:14;13.00;1.00
53802;DHT22;39709;53.334;6.534;2023-03-23T11:02:44;12.90;1.00
53802;DHT22;39709;53.334;6.534;2023-03-23T11:05:23;13.00;1.00
53802;DHT22;39709;53.334;6.534;2023-03-23T11:07:54;13.00;1.00
53802;DHT22;39709;53.334;6.534;2023-03-23T11:12:49;12.90;1.00
53802;DHT22;39709;53.334;6.534;2023-03-23T11:18:06;13.10;1.00
53802;DHT22;39709;53.334;6.534;2023-03-23T11:20:36;13.30;1.00
53802;DHT22;39709;53.334;6.534;2023-03-23T11:23:20;13.50;1.00
53802;DHT22;39709;53.334;6.534;2023-03-23T11:25:53;13.70;1.00
53802;DHT22;39709;53.334;6.534;2023-03-23T11:28:20;13.70;1.00
53802;DHT22;39709;53.334;6.534;2023-03-23T11:30:46;13.80;1.00
53802;DHT22;39709;53.334;6.534;2023-03-23T11:33:12;13.70;1.00
53802;DHT22;39709;53.334;6.534;2023-03-23T11:35:43;13.60;1.00
53802;DHT22;39709;53.334;6.534;2023-03-23T11:38:17;13.50;1.00
53802;DHT22;39709;53.334;6.534;2023-03-23T11:40:48;13.80;1.00
53802;DHT22;39709;53.334;6.534;2023-03-23T11:43:19;13.80;1.00
53802;DHT22;39709;53.334;6.534;2023-03-23T11:46:10;13.90;1.00
53802;DHT22;39709;53.334;6.534;2023-03-23T11:48:41;13.80;1.00
53802;DHT22;39709;53.334;6.534;2023-03-23T11:51:27;13.80;1.00
53802;DHT22;39709;53.334;6.534;2023-03-23T11:56:39;14.10;1.00
53802;DHT22;39709;53.334;6.534;2023-03-23T11:59:16;14.20;1.00
53802;DHT22;39709;53.334;6.534;2023-03-23T12:06:57;14.10;1.00
53802;DHT22;39709;53.334;6.534;2023-03-23T12:09:34;14.00;1.00
53802;DHT22;39709;53.334;6.534;2023-03-23T12:17:29;14.20;1.00
53802;DHT22;39709;53.334;6.534;2023-03-23T12:30:29;14.30;1.00
53802;DHT22;39709;53.334;6.534;2023-03-23T12:33:26;14.40;1.00
53802;DHT22;39709;53.334;6.534;2023-03-23T12:36:37;14.40;1.00
53802;DHT22;39709;53.334;6.534;2023-03-23T12:42:24;14.30;1.00
53802;DHT22;39709;53.334;6.534;2023-03-23T12:47:39;14.40;1.00
53802;DHT22;39709;53.334;6.534;2023-03-23T12:53:05;14.50;1.00
53802;DHT22;39709;53.334;6.534;2023-03-23T12:58:32;14.40;1.00
53802;DHT22;39709;53.334;6.534;2023-03-23T13:01:08;14.60;1.00
53802;DHT22;39709;53.334;6.534;2023-03-23T13:03:45;14.50;1.00
53802;DHT22;39709;53.334;6.534;2023-03-23T13:08:58;14.40;1.00
53802;DHT22;39709;53.334;6.534;2023-03-23T13:11:35;14.40;1.00
53802;DHT22;39709;53.334;6.534;2023-03-23T13:14:19;14.50;1.00
53802;DHT22;39709;53.334;6.534;2023-03-23T13:20:11;14.70;1.00
53802;DHT22;39709;53.334;6.534;2023-03-23T13:25:48;14.80;1.00
53802;DHT22;39709;53.334;6.534;2023-03-23T13:28:20;14.80;1.00
53802;DHT22;39709;53.334;6.534;2023-03-23T13:31:13;14.80;1.00
53802;DHT22;39709;53.334;6.534;2023-03-23T13:33:51;14.60;1.00
53802;DHT22;39709;53.334;6.534;2023-03-23T13:36:36;14.70;1.00
53802;DHT22;39709;53.334;6.534;2023-03-23T13:39:05;14.70;1.00
53802;DHT22;39709;53.334;6.534;2023-03-23T13:41:33;14.70;1.00
53802;DHT22;39709;53.334;6.534;2023-03-23T13:44:26;14.90;1.00
53802;DHT22;39709;53.334;6.534;2023-03-23T13:46:57;14.90;1.00
53802;DHT22;39709;53.334;6.534;2023-03-23T13:49:32;14.80;1.00
53802;DHT22;39709;53.334;6.534;2023-03-23T13:54:47;14.90;1.00
53802;DHT22;39709;53.334;6.534;2023-03-23T13:57:34;14.90;1.00
53802;DHT22;39709;53.334;6.534;2023-03-23T14:03:12;14.90;1.00
53802;DHT22;39709;53.334;6.534;2023-03-23T14:05:49;14.70;1.00
53802;DHT22;39709;53.334;6.534;2023-03-23T14:10:56;14.60;1.00
53802;DHT22;39709;53.334;6.534;2023-03-23T14:16:16;14.90;1.00
53802;DHT22;39709;53.334;6.534;2023-03-23T14:18:59;14.80;1.00
53802;DHT22;39709;53.334;6.534;2023-03-23T14:21:35;14.80;1.00
53802;DHT22;39709;53.334;6.534;2023-03-23T14:24:03;14.70;1.00
53802;DHT22;39709;53.334;6.534;2023-03-23T14:26:33;15.00;1.00
53802;DHT22;39709;53.334;6.534;2023-03-23T14:28:59;15.20;1.00
53802;DHT22;39709;53.334;6.534;2023-03-23T14:31:27;15.10;1.00
53802;DHT22;39709;53.334;6.534;2023-03-23T14:33:55;15.00;1.00
53802;DHT22;39709;53.334;6.534;2023-03-23T14:36:29;15.10;1.00
53802;DHT22;39709;53.334;6.534;2023-03-23T14:41:45;15.10;99.90
53802;DHT22;39709;53.334;6.534;2023-03-23T14:44:20;15.10;1.00
53802;DHT22;39709;53.334;6.534;2023-03-23T14:46:47;15.10;1.00
53802;DHT22;39709;53.334;6.534;2023-03-23T14:49:20;15.00;1.00
53802;DHT22;39709;53.334;6.534;2023-03-23T14:51:50;15.00;1.00
53802;DHT22;39709;53.334;6.534;2023-03-23T14:54:27;14.90;1.00
53802;DHT22;39709;53.334;6.534;2023-03-23T14:56:54;15.00;1.00
53802;DHT22;39709;53.334;6.534;2023-03-23T14:59:21;15.10;1.00
53802;DHT22;39709;53.334;6.534;2023-03-23T15:01:48;15.00;1.00
53802;DHT22;39709;53.334;6.534;2023-03-23T15:04:21;15.00;1.00
53802;DHT22;39709;53.334;6.534;2023-03-23T15:07:08;14.90;1.00
53802;DHT22;39709;53.334;6.534;2023-03-23T15:09:39;14.90;1.00
53802;DHT22;39709;53.334;6.534;2023-03-23T15:12:19;14.90;1.00
53802;DHT22;39709;53.334;6.534;2023-03-23T15:14:52;14.90;1.00
53802;DHT22;39709;53.334;6.534;2023-03-23T15:17:22;14.90;1.00
53802;DHT22;39709;53.334;6.534;2023-03-23T15:19:48;14.80;1.00
53802;DHT22;39709;53.334;6.534;2023-03-23T15:24:44;14.80;1.00
53802;DHT22;39709;53.334;6.534;2023-03-23T15:29:55;14.70;1.00
53802;DHT22;39709;53.334;6.534;2023-03-23T15:32:23;14.90;1.00
53802;DHT22;39709;53.334;6.534;2023-03-23T15:34:49;14.90;1.00
53802;DHT22;39709;53.334;6.534;2023-03-23T15:39:47;14.90;99.90
53802;DHT22;39709;53.334;6.534;2023-03-23T15:42:36;15.00;1.00
53802;DHT22;39709;53.334;6.534;2023-03-23T15:45:26;14.90;1.00
53802;DHT22;39709;53.334;6.534;2023-03-23T15:47:53;14.80;99.90
53802;DHT22;39709;53.334;6.534;2023-03-23T15:52:45;14.80;99.90
53802;DHT22;39709;53.334;6.534;2023-03-23T15:55:27;14.90;1.00
53802;DHT22;39709;53.334;6.534;2023-03-23T15:57:55;14.80;99.90
53802;DHT22;39709;53.334;6.534;2023-03-23T16:00:26;14.90;1.00
53802;DHT22;39709;53.334;6.534;2023-03-23T16:02:59;15.00;1.00
53802;DHT22;39709;53.334;6.534;2023-03-23T16:05:26;14.80;99.90
53802;DHT22;39709;53.334;6.534;2023-03-23T16:07:52;14.50;99.90
53802;DHT22;39709;53.334;6.534;2023-03-23T16:10:20;14.50;1.00
53802;DHT22;39709;53.334;6.534;2023-03-23T16:12:46;14.60;1.00
53802;DHT22;39709;53.334;6.534;2023-03-23T16:15:13;14.70;1.00
53802;DHT22;39709;53.334;6.534;2023-03-23T16:17:40;14.60;1.00
53802;DHT22;39709;53.334;6.534;2023-03-23T16:20:18;14.40;99.90
53802;DHT22;39709;53.334;6.534;2023-03-23T16:22:44;14.60;1.00
53802;DHT22;39709;53.334;6.534;2023-03-23T16:25:11;14.70;1.00
53802;DHT22;39709;53.334;6.534;2023-03-23T16:27:37;14.70;1.00
53802;DHT22;39709;53.334;6.534;2023-03-23T16:30:23;14.60;1.00
53802;DHT22;39709;53.334;6.534;2023-03-23T16:32:49;14.30;99.90
53802;DHT22;39709;53.334;6.534;2023-03-23T16:35:15;14.30;1.00
53802;DHT22;39709;53.334;6.534;2023-03-23T16:37:45;14.20;1.00
53802;DHT22;39709;53.334;6.534;2023-03-23T16:40:12;14.20;99.90
53802;DHT22;39709;53.334;6.534;2023-03-23T16:42:38;14.30;1.00
53802;DHT22;39709;53.334;6.534;2023-03-23T16:45:05;14.10;1.00
53802;DHT22;39709;53.334;6.534;2023-03-23T16:47:31;13.80;1.00
53802;DHT22;39709;53.334;6.534;2023-03-23T16:49:57;13.90;1.00
53802;DHT22;39709;53.334;6.534;2023-03-23T16:52:24;13.80;1.00
53802;DHT22;39709;53.334;6.534;2023-03-23T16:54:50;13.60;1.00
53802;DHT22;39709;53.334;6.534;2023-03-23T16:57:16;13.70;1.00
53802;DHT22;39709;53.334;6.534;2023-03-23T16:59:41;13.50;1.00
53802;DHT22;39709;53.334;6.534;2023-03-23T17:02:10;13.70;1.00
53802;DHT22;39709;53.334;6.534;2023-03-23T17:04:36;13.50;1.00
53802;DHT22;39709;53.334;6.534;2023-03-23T17:07:02;13.60;1.00
53802;DHT22;39709;53.334;6.534;2023-03-23T17:09:28;13.50;1.00
53802;DHT22;39709;53.334;6.534;2023-03-23T17:11:54;13.30;1.00
53802;DHT22;39709;53.334;6.534;2023-03-23T17:14:20;13.10;1.00
53802;DHT22;39709;53.334;6.534;2023-03-23T17:16:46;12.90;1.00
53802;DHT22;39709;53.334;6.534;2023-03-23T17:19:12;12.90;1.00
53802;DHT22;39709;53.334;6.534;2023-03-23T17:21:41;12.90;1.00
53802;DHT22;39709;53.334;6.534;2023-03-23T17:24:07;12.80;1.00
53802;DHT22;39709;53.334;6.534;2023-03-23T17:26:33;12.80;1.00
53802;DHT22;39709;53.334;6.534;2023-03-23T17:28:59;12.60;1.00
53802;DHT22;39709;53.334;6.534;2023-03-23T17:31:25;12.50;1.00
53802;DHT22;39709;53.334;6.534;2023-03-23T17:33:50;12.50;1.00
53802;DHT22;39709;53.334;6.534;2023-03-23T17:36:17;12.30;1.00
53802;DHT22;39709;53.334;6.534;2023-03-23T17:38:43;12.30;1.00
53802;DHT22;39709;53.334;6.534;2023-03-23T17:41:09;12.30;1.00
53802;DHT22;39709;53.334;6.534;2023-03-23T17:43:36;12.30;1.00
53802;DHT22;39709;53.334;6.534;2023-03-23T17:46:05;12.10;1.00
53802;DHT22;39709;53.334;6.534;2023-03-23T17:48:31;12.20;1.00
53802;DHT22;39709;53.334;6.534;2023-03-23T17:50:57;12.10;1.00
53802;DHT22;39709;53.334;6.534;2023-03-23T17:53:25;12.10;1.00
53802;DHT22;39709;53.334;6.534;2023-03-23T17:55:51;12.00;1.00
53802;DHT22;39709;53.334;6.534;2023-03-23T17:58:17;11.90;1.00
53802;DHT22;39709;53.334;6.534;2023-03-23T18:00:43;11.60;1.00
53802;DHT22;39709;53.334;6.534;2023-03-23T18:03:09;11.80;1.00